createdAt,value
2022-08-25T00:00:34.980Z,5.00
2022-08-25T00:03:01.810Z,5.15
2022-08-25T00:05:32.206Z,5.55
2022-08-25T00:08:08.969Z,4.53
2022-08-25T00:10:37.340Z,5.40
2022-08-25T00:13:12.776Z,5.28
2022-08-25T00:15:39.218Z,5.90
2022-08-25T00:18:05.863Z,5.40
2022-08-25T00:20:54.790Z,5.93
2022-08-25T00:23:28.753Z,5.57
2022-08-25T00:25:55.371Z,5.47
2022-08-25T00:28:28.763Z,5.70
2022-08-25T00:30:55.376Z,6.57
2022-08-25T00:33:21.932Z,6.33
2022-08-25T00:36:02.747Z,6.35
2022-08-25T00:38:29.412Z,6.30
2022-08-25T00:41:14.747Z,6.50
2022-08-25T00:43:48.747Z,6.30
2022-08-25T00:46:26.818Z,7.30
2022-08-25T00:49:05.779Z,8.35
2022-08-25T00:51:38.915Z,7.18
2022-08-25T00:54:14.976Z,7.90
2022-08-25T00:56:41.968Z,6.40
2022-08-25T00:59:08.682Z,7.13
2022-08-25T01:01:42.988Z,7.10
2022-08-25T01:04:16.732Z,6.35
2022-08-25T01:06:50.944Z,6.40
2022-08-25T01:09:19.903Z,6.78
2022-08-25T01:11:54.905Z,6.60
2022-08-25T01:14:30.760Z,6.70
2022-08-25T01:17:04.742Z,7.07
2022-08-25T01:19:33.538Z,6.75
2022-08-25T01:22:06.765Z,6.32
2022-08-25T01:24:52.921Z,6.30
2022-08-25T01:27:26.827Z,5.45
2022-08-25T01:29:53.974Z,5.50
2022-08-25T01:32:26.801Z,5.03
2022-08-25T01:35:00.944Z,5.88
2022-08-25T01:37:27.325Z,5.63
2022-08-25T01:39:54.525Z,5.03
2022-08-25T01:43:06.781Z,8.05
2022-08-25T01:45:35.062Z,6.57
2022-08-25T01:48:02.613Z,8.77
2022-08-25T01:50:36.772Z,7.73
2022-08-25T01:53:14.558Z,9.07
2022-08-25T01:56:00.761Z,9.63
2022-08-25T01:58:35.953Z,6.80
2022-08-25T02:01:12.963Z,7.28
2022-08-25T02:03:42.327Z,8.03
2022-08-25T02:06:18.798Z,8.77
2022-08-25T02:08:45.648Z,7.55
2022-08-25T02:11:22.739Z,7.10
2022-08-25T02:13:49.268Z,5.95
2022-08-25T02:16:26.828Z,8.27
2022-08-25T02:19:00.957Z,8.43
2022-08-25T02:21:28.373Z,8.52
2022-08-25T02:24:05.352Z,8.05
2022-08-25T02:26:31.962Z,8.43
2022-08-25T02:29:04.792Z,7.33
2022-08-25T02:31:31.499Z,6.63
2022-08-25T02:34:12.950Z,5.03
2022-08-25T02:36:39.506Z,6.65
2022-08-25T02:39:07.487Z,5.50
2022-08-25T02:41:40.730Z,5.87
2022-08-25T02:44:09.127Z,5.95
2022-08-25T02:46:42.737Z,6.20
2022-08-25T02:49:09.476Z,6.25
2022-08-25T02:51:42.737Z,6.32
2022-08-25T02:54:09.554Z,6.00
2022-08-25T02:56:36.393Z,6.10
2022-08-25T02:59:09.779Z,6.00
2022-08-25T03:01:36.339Z,6.10
2022-08-25T03:04:10.781Z,6.43
2022-08-25T03:06:37.285Z,5.90
2022-08-25T03:09:10.757Z,6.03
2022-08-25T03:11:38.435Z,6.88
2022-08-25T03:14:18.729Z,5.68
2022-08-25T03:16:46.518Z,6.18
2022-08-25T03:19:13.193Z,6.07
2022-08-25T03:21:46.775Z,5.38
2022-08-25T03:24:19.797Z,5.97
2022-08-25T03:26:55.967Z,5.32
2022-08-25T03:29:39.743Z,5.70
2022-08-25T03:32:06.613Z,5.43
2022-08-25T03:34:39.751Z,5.20
2022-08-25T03:37:08.522Z,5.50
2022-08-25T03:39:42.939Z,4.72
2022-08-25T03:42:09.495Z,5.55
2022-08-25T03:44:49.771Z,4.87
2022-08-25T03:47:16.164Z,4.63
2022-08-25T03:49:42.558Z,5.20
2022-08-25T03:52:16.869Z,4.90
2022-08-25T03:54:50.754Z,4.40
2022-08-25T03:57:23.753Z,4.13
2022-08-25T03:59:50.280Z,5.05
2022-08-25T04:02:16.791Z,4.47
2022-08-25T04:04:49.746Z,4.90
2022-08-25T04:07:26.822Z,5.07
2022-08-25T04:09:56.272Z,5.40
2022-08-25T04:12:30.765Z,5.40
2022-08-25T04:14:58.150Z,5.72
2022-08-25T04:17:30.792Z,6.07
2022-08-25T04:20:04.945Z,6.40
2022-08-25T04:22:31.803Z,5.90
2022-08-25T04:25:11.942Z,5.80
2022-08-25T04:27:38.327Z,6.00
2022-08-25T04:30:12.722Z,5.28
2022-08-25T04:32:52.752Z,6.15
2022-08-25T04:35:26.731Z,5.10
2022-08-25T04:37:53.207Z,4.65
2022-08-25T04:40:20.211Z,5.20
2022-08-25T04:43:01.741Z,4.70
2022-08-25T04:45:28.195Z,5.25
2022-08-25T04:47:56.822Z,4.70
2022-08-25T04:50:29.736Z,4.50
2022-08-25T04:53:02.727Z,4.15
2022-08-25T04:55:29.189Z,4.10
2022-08-25T04:58:01.801Z,4.82
2022-08-25T05:00:34.766Z,4.00
2022-08-25T05:03:08.927Z,4.22
2022-08-25T05:05:39.253Z,3.40
2022-08-25T05:08:12.779Z,4.00
2022-08-25T05:10:40.882Z,4.10
2022-08-25T05:13:08.837Z,3.77
2022-08-25T05:15:56.919Z,3.85
2022-08-25T05:18:28.850Z,3.88
2022-08-25T05:21:02.735Z,5.03
2022-08-25T05:23:29.228Z,4.35
2022-08-25T05:26:03.752Z,4.07
2022-08-25T05:28:30.251Z,3.40
2022-08-25T05:31:01.535Z,3.63
2022-08-25T05:33:35.860Z,3.63
2022-08-25T05:36:10.007Z,4.28
2022-08-25T05:38:43.739Z,3.70
2022-08-25T05:41:16.219Z,3.90
2022-08-25T05:43:50.712Z,3.85
2022-08-25T05:46:19.433Z,3.38
2022-08-25T05:48:52.717Z,3.70
2022-08-25T05:51:27.736Z,3.70
2022-08-25T05:53:54.450Z,3.22
2022-08-25T05:56:21.073Z,3.90
2022-08-25T05:58:54.932Z,3.60
2022-08-25T06:01:45.027Z,3.67
2022-08-25T06:04:19.777Z,3.90
2022-08-25T06:06:53.772Z,3.95
2022-08-25T06:09:27.746Z,3.92
2022-08-25T06:11:55.368Z,3.97
2022-08-25T06:14:23.329Z,3.95
2022-08-25T06:16:57.755Z,3.67
2022-08-25T06:19:24.225Z,3.67
2022-08-25T06:22:00.710Z,4.00
2022-08-25T06:24:29.099Z,3.38
2022-08-25T06:27:03.766Z,4.15
2022-08-25T06:29:30.222Z,4.53
2022-08-25T06:32:03.877Z,4.68
2022-08-25T06:34:33.827Z,4.00
2022-08-25T15:22:41.791Z,2.65
2022-08-25T15:25:08.814Z,2.40
2022-08-25T15:27:41.716Z,2.50
2022-08-25T15:30:15.756Z,2.20
2022-08-25T15:32:42.285Z,2.85
2022-08-25T15:35:15.721Z,2.80
2022-08-25T15:37:42.227Z,3.42
2022-08-25T15:40:15.986Z,2.20
2022-08-25T15:42:43.008Z,2.28
2022-08-25T15:45:19.925Z,2.17
2022-08-25T15:47:46.631Z,1.98
2022-08-25T15:50:29.942Z,2.30
2022-08-25T15:52:56.683Z,2.10
2022-08-25T15:55:29.729Z,1.92
2022-08-25T15:58:02.948Z,3.20
2022-08-25T16:00:38.097Z,2.25
2022-08-25T16:03:05.023Z,2.38
2022-08-25T16:05:53.784Z,2.40
2022-08-25T16:08:20.812Z,2.08
2022-08-25T16:10:47.659Z,2.75
2022-08-25T16:13:23.908Z,2.40
2022-08-25T16:15:56.975Z,2.58
2022-08-25T16:18:30.171Z,2.50
2022-08-25T16:24:07.707Z,2.17
2022-08-25T16:26:48.215Z,2.25
2022-08-25T16:29:15.726Z,2.00
2022-08-25T16:31:43.256Z,6.57
2022-08-25T16:34:17.845Z,3.25
2022-08-25T16:36:52.023Z,2.58
2022-08-25T16:39:27.755Z,1.95
2022-08-25T16:42:01.933Z,2.53
2022-08-25T16:44:34.785Z,1.93
2022-08-25T16:47:09.927Z,2.17
2022-08-25T16:49:52.712Z,2.33
2022-08-25T16:52:48.732Z,1.88
2022-08-25T16:55:16.373Z,2.95
2022-08-25T16:57:52.757Z,1.90
2022-08-25T17:00:25.386Z,2.10
2022-08-25T17:03:18.474Z,2.42
2022-08-25T17:05:45.254Z,2.65
2022-08-25T17:08:36.732Z,2.22
2022-08-25T17:11:07.222Z,2.20
2022-08-25T17:13:44.553Z,1.63
2022-08-25T17:16:12.952Z,2.17
2022-08-25T17:18:55.916Z,3.38
2022-08-25T17:21:26.683Z,2.30
2022-08-25T17:24:01.919Z,1.77
2022-08-25T17:26:31.420Z,2.17
2022-08-25T17:29:07.945Z,2.70
2022-08-25T17:31:39.616Z,3.40
2022-08-25T17:34:20.289Z,2.70
2022-08-25T17:36:47.799Z,2.93
2022-08-25T17:39:22.268Z,3.13
2022-08-25T17:41:49.818Z,3.60
2022-08-25T17:44:23.756Z,3.70
2022-08-25T17:46:51.558Z,3.55
2022-08-25T17:49:25.731Z,3.70
2022-08-25T17:51:52.183Z,3.88
2022-08-25T17:54:18.766Z,4.57
2022-08-25T17:56:51.703Z,4.25
2022-08-25T17:59:19.629Z,4.93
2022-08-25T18:01:55.513Z,4.57
2022-08-25T18:04:22.681Z,5.45
2022-08-25T18:06:55.769Z,6.20
2022-08-25T18:09:22.805Z,6.28
2022-08-25T18:11:52.416Z,6.10
2022-08-25T18:14:25.898Z,5.47
2022-08-25T18:16:54.058Z,7.05
2022-08-25T18:19:33.698Z,5.88
2022-08-25T18:22:04.214Z,6.43
2022-08-25T18:24:37.718Z,5.55
2022-08-25T18:27:04.407Z,6.20
2022-08-25T18:29:42.735Z,6.22
2022-08-25T18:32:09.668Z,6.45
2022-08-25T18:34:39.099Z,7.25
2022-08-25T18:37:33.728Z,6.85
2022-08-25T18:40:18.843Z,7.00
2022-08-25T18:42:51.917Z,7.43
2022-08-25T18:45:19.424Z,7.15
2022-08-25T18:47:53.792Z,8.35
2022-08-25T18:50:20.666Z,7.13
2022-08-25T18:52:55.163Z,8.13
2022-08-25T18:55:29.735Z,9.23
2022-08-25T18:57:57.655Z,8.50
2022-08-25T19:00:35.717Z,8.95
2022-08-25T19:03:08.977Z,10.75
2022-08-25T19:05:45.138Z,11.30
2022-08-25T19:08:23.915Z,13.10
2022-08-25T19:10:52.823Z,13.05
2022-08-25T19:13:25.733Z,15.23
2022-08-25T19:15:52.556Z,17.67
2022-08-25T19:18:33.855Z,17.33
2022-08-25T19:21:07.712Z,18.02
2022-08-25T19:23:45.906Z,19.75
2022-08-25T19:26:19.726Z,20.38
2022-08-25T19:28:55.763Z,21.67
2022-08-25T19:31:33.798Z,22.77
2022-08-25T19:34:07.928Z,24.58
2022-08-25T19:36:40.914Z,25.85
2022-08-25T19:39:10.111Z,25.20
2022-08-25T19:41:43.711Z,25.40
2022-08-25T19:44:12.157Z,27.17
2022-08-25T19:46:47.719Z,27.55
2022-08-25T19:49:31.517Z,27.27
2022-08-25T19:51:58.358Z,26.38
2022-08-25T19:54:39.698Z,26.73
2022-08-25T19:57:27.886Z,24.97
2022-08-25T20:00:03.706Z,24.65
2022-08-25T20:02:31.849Z,24.30
2022-08-25T20:05:07.730Z,23.13
2022-08-25T20:07:35.127Z,24.27
2022-08-25T20:10:02.335Z,22.93
2022-08-25T20:12:35.825Z,22.77
2022-08-25T20:15:04.014Z,21.60
2022-08-25T20:17:37.928Z,20.42
2022-08-25T20:20:21.159Z,20.48
2022-08-25T20:22:55.685Z,20.67
2022-08-25T20:25:25.325Z,20.17
2022-08-25T20:28:01.943Z,20.00
2022-08-25T20:30:30.158Z,19.95
2022-08-25T20:33:03.961Z,19.15
2022-08-25T20:35:34.952Z,20.10
2022-08-25T20:38:10.782Z,20.90
2022-08-25T20:40:40.667Z,20.08
2022-08-25T20:43:13.858Z,18.88
2022-08-25T20:45:47.821Z,19.25
2022-08-25T20:48:20.707Z,19.13
2022-08-25T20:50:54.396Z,18.73
2022-08-25T20:53:30.710Z,18.55
2022-08-25T20:56:03.943Z,17.20
2022-08-25T20:58:30.608Z,18.05
2022-08-25T21:00:56.987Z,17.83
2022-08-25T21:03:29.772Z,16.63
2022-08-25T21:05:56.556Z,17.38
2022-08-25T21:08:23.782Z,16.52
2022-08-25T21:10:59.746Z,17.52
2022-08-25T21:13:26.230Z,15.90
2022-08-25T21:16:08.927Z,16.83
2022-08-25T21:18:36.472Z,15.93
2022-08-25T21:21:17.835Z,16.30
2022-08-25T21:23:54.716Z,15.18
2022-08-25T21:26:26.204Z,16.00
2022-08-25T21:28:59.751Z,15.43
2022-08-25T21:31:27.925Z,14.27
2022-08-25T21:34:03.705Z,14.02
2022-08-25T21:36:31.348Z,14.05
2022-08-25T21:38:59.968Z,14.27
2022-08-25T21:41:37.752Z,14.27
2022-08-25T21:44:10.699Z,13.32
2022-08-25T21:46:38.301Z,13.40
2022-08-25T21:49:14.916Z,13.13
2022-08-25T21:52:00.336Z,12.83
2022-08-25T21:54:28.667Z,12.10
2022-08-25T21:57:05.692Z,12.82
2022-08-25T21:59:34.930Z,11.07
2022-08-25T22:02:11.970Z,10.73
2022-08-25T22:04:39.559Z,10.13
2022-08-25T22:07:07.939Z,9.68
2022-08-25T22:09:41.703Z,9.23
2022-08-25T22:12:09.237Z,10.70
2022-08-25T22:14:43.732Z,8.98
2022-08-25T22:17:16.487Z,8.83
2022-08-25T22:19:43.757Z,8.70
2022-08-25T22:22:20.856Z,7.90
2022-08-25T22:24:47.538Z,7.90
2022-08-25T22:27:20.721Z,7.82
2022-08-25T22:29:57.945Z,6.63
2022-08-25T22:32:30.695Z,6.53
2022-08-25T22:34:57.160Z,5.90
2022-08-25T22:37:30.418Z,5.93
2022-08-25T22:39:57.047Z,5.45
2022-08-25T22:42:31.704Z,5.00
2022-08-25T22:44:58.359Z,5.40
2022-08-25T22:47:31.729Z,4.68
2022-08-25T22:50:05.752Z,4.68
2022-08-25T22:52:34.685Z,4.60
2022-08-25T22:55:02.878Z,4.40
2022-08-25T22:57:35.828Z,4.50
2022-08-25T23:00:03.048Z,3.80
2022-08-25T23:02:37.728Z,4.30
2022-08-25T23:05:05.167Z,3.67
2022-08-25T23:07:35.743Z,3.03
2022-08-25T23:10:11.892Z,2.67
2022-08-25T23:12:40.383Z,2.05
2022-08-25T23:15:17.677Z,1.90
2022-08-25T23:17:58.702Z,1.88
2022-08-25T23:20:51.752Z,2.13
2022-08-25T23:23:18.272Z,1.55
2022-08-25T23:25:51.700Z,1.73
2022-08-25T23:28:18.504Z,1.70
2022-08-25T23:30:51.815Z,2.08
2022-08-25T23:33:26.895Z,1.47
2022-08-25T23:36:07.871Z,1.52
2022-08-25T23:38:41.895Z,1.73
2022-08-25T23:41:20.104Z,1.98
2022-08-25T23:43:55.683Z,1.83
2022-08-25T23:46:24.277Z,1.77
2022-08-25T23:49:01.692Z,2.00
2022-08-25T23:51:30.745Z,2.55
2022-08-25T23:53:59.256Z,3.83
2022-08-25T23:56:32.887Z,2.70
2022-08-25T23:58:59.648Z,2.60
